Time;durP1;ratioP1;P1;durP2;ratioP2;P2;SDS_P1;SDS_P2;PMS_P1;PMS_P2;Temp;Humidity;BMP_temperature;BMP_pressure;BME280_temperature;BME280_humidity;BME280_pressure;Samples;Min_cycle;Max_cycle;Signal;HPM_P1;HPM_P2
2023/07/13 00:00:10;;;;;;;6.60;4.70;;;;;;;26.94;38.57;99890.63;108146;1253;71324;-69
2023/07/13 00:02:42;;;;;;;8.00;4.10;;;;;;;27.03;38.46;99891.33;108122;1253;61793;-68
2023/07/13 00:05:08;;;;;;;6.50;4.50;;;;;;;27.18;38.03;99889.70;108113;1255;60721;-69
2023/07/13 00:07:36;;;;;;;6.50;4.30;;;;;;;27.03;38.22;99886.02;108148;1252;74253;-70
2023/07/13 00:10:03;;;;;;;6.40;4.70;;;;;;;26.97;38.50;99883.27;108180;1251;70307;-70
2023/07/13 00:12:35;;;;;;;8.80;4.90;;;;;;;27.04;38.31;99873.88;108166;1256;72372;-69
2023/07/13 00:15:05;;;;;;;5.80;4.10;;;;;;;27.04;38.32;99865.23;108090;1252;60720;-72
2023/07/13 00:17:32;;;;;;;11.20;5.60;;;;;;;27.11;38.18;99868.23;108339;1251;58384;-69
2023/07/13 00:19:59;;;;;;;6.90;4.10;;;;;;;27.10;38.20;99859.38;108115;1252;73844;-70
2023/07/13 00:22:26;;;;;;;6.00;4.20;;;;;;;26.96;38.46;99861.78;108214;1251;70134;-68
2023/07/13 00:24:55;;;;;;;8.40;4.30;;;;;;;26.99;38.40;99852.66;108515;1251;72366;-69
2023/07/13 00:27:22;;;;;;;8.70;4.30;;;;;;;26.95;38.36;99851.31;108784;1251;60438;-68
2023/07/13 00:29:49;;;;;;;7.10;4.40;;;;;;;27.01;38.24;99846.11;109272;1253;59333;-68
2023/07/13 00:32:15;;;;;;;4.90;3.40;;;;;;;26.93;38.35;99843.05;108858;1251;59247;-70
2023/07/13 00:34:42;;;;;;;8.20;3.60;;;;;;;26.95;38.33;99837.10;108312;1254;59128;-69
2023/07/13 00:37:09;;;;;;;5.60;3.80;;;;;;;27.22;37.88;99834.67;108209;1251;72430;-69
2023/07/13 00:39:35;;;;;;;8.60;3.60;;;;;;;27.24;38.03;99830.23;108042;1254;60322;-70
2023/07/13 00:42:03;;;;;;;5.20;4.10;;;;;;;27.49;37.53;99820.84;108423;1251;59965;-69
2023/07/13 00:44:30;;;;;;;7.80;4.40;;;;;;;27.60;37.34;99819.35;108659;1256;73234;-68
2023/07/13 00:46:58;;;;;;;9.40;4.20;;;;;;;27.39;37.76;99819.05;108098;1257;71304;-69
2023/07/13 00:49:27;;;;;;;7.40;4.40;;;;;;;27.37;37.82;99818.04;108161;1256;72455;-68
2023/07/13 00:52:07;;;;;;;6.60;3.90;;;;;;;27.37;37.81;99819.08;108066;1254;61708;-69
2023/07/13 00:54:41;;;;;;;9.70;4.40;;;;;;;27.31;38.04;99814.64;108202;1254;60380;-69
2023/07/13 00:57:09;;;;;;;7.90;4.20;;;;;;;27.37;38.09;99818.40;108540;1255;73947;-70
2023/07/13 00:59:36;;;;;;;8.70;4.00;;;;;;;27.27;38.26;99818.23;108517;1256;70113;-69
2023/07/13 01:02:03;;;;;;;9.30;4.10;;;;;;;27.46;38.01;99818.82;108252;1256;72941;-69
2023/07/13 01:04:30;;;;;;;9.40;4.30;;;;;;;27.67;37.77;99813.71;108121;1255;61801;-69
2023/07/13 01:06:57;;;;;;;7.20;4.30;;;;;;;27.57;37.74;99809.77;108075;1252;60300;-69
2023/07/13 01:09:23;;;;;;;12.20;4.60;;;;;;;27.68;37.87;99809.38;108131;1256;72391;-69
2023/07/13 01:11:50;;;;;;;9.70;4.40;;;;;;;27.60;38.00;99809.58;107970;1257;70368;-70
2023/07/13 01:14:17;;;;;;;8.10;4.90;;;;;;;27.65;37.95;99807.46;108156;1251;71985;-69
2023/07/13 01:16:47;;;;;;;9.20;4.20;;;;;;;27.64;38.00;99808.25;108134;1251;62261;-69
2023/07/13 01:19:25;;;;;;;6.00;4.50;;;;;;;27.75;37.94;99806.04;108066;1256;60425;-69
2023/07/13 01:21:53;;;;;;;8.00;4.30;;;;;;;27.86;37.85;99804.40;108107;1251;73679;-69
2023/07/13 01:24:19;;;;;;;7.10;4.50;;;;;;;27.91;38.03;99805.71;108208;1251;70258;-69
2023/07/13 01:26:48;;;;;;;6.80;4.00;;;;;;;27.70;38.26;99801.45;108037;1251;72577;-69
2023/07/13 01:29:14;;;;;;;6.70;4.20;;;;;;;27.84;38.00;99802.42;108142;1256;60476;-68
2023/07/13 01:31:45;;;;;;;6.40;4.50;;;;;;;27.72;38.27;99800.67;108217;1251;60398;-69
2023/07/13 01:34:12;;;;;;;8.00;4.70;;;;;;;27.71;38.31;99802.74;108286;1251;73535;-69
2023/07/13 01:36:42;;;;;;;10.10;4.80;;;;;;;27.55;38.50;99800.27;108086;1254;71345;-68
2023/07/13 01:39:09;;;;;;;9.50;4.60;;;;;;;27.46;38.76;99801.99;108348;1256;72563;-67
2023/07/13 01:41:36;;;;;;;10.50;5.00;;;;;;;27.43;38.76;99799.26;108162;1253;61783;-69
2023/07/13 01:44:04;;;;;;;6.60;4.30;;;;;;;27.56;38.71;99802.88;108144;1251;60328;-67
2023/07/13 01:46:31;;;;;;;6.80;4.60;;;;;;;27.48;38.91;99805.36;108106;1253;73682;-69
2023/07/13 01:48:58;;;;;;;8.80;4.30;;;;;;;27.58;38.76;99806.45;108159;1251;70153;-69
2023/07/13 01:51:24;;;;;;;6.20;4.00;;;;;;;27.37;39.00;99809.31;108079;1251;72996;-69
2023/07/13 01:53:51;;;;;;;6.20;4.50;;;;;;;27.45;38.82;99807.19;108330;1251;62056;-69
2023/07/13 01:56:18;;;;;;;6.70;4.00;;;;;;;27.63;38.71;99800.30;108322;1256;60408;-69
2023/07/13 01:58:46;;;;;;;7.20;3.80;;;;;;;27.71;38.42;99800.07;108216;1255;73885;-69
2023/07/13 02:01:13;;;;;;;8.20;4.70;;;;;;;27.80;38.13;99796.89;108190;1257;70436;-68
2023/07/13 02:03:40;;;;;;;9.00;4.70;;;;;;;27.67;38.46;99804.98;108029;1258;72988;-68
2023/07/13 02:06:08;;;;;;;6.50;4.30;;;;;;;27.74;38.39;99803.13;108421;1251;60319;-68
2023/07/13 02:08:37;;;;;;;6.10;4.30;;;;;;;27.59;38.46;99803.30;108619;1256;59983;-71
2023/07/13 02:11:03;;;;;;;9.30;4.60;;;;;;;27.71;38.43;99802.41;108277;1256;73978;-69
2023/07/13 02:13:30;;;;;;;6.10;4.30;;;;;;;27.91;38.11;99798.69;108182;1257;70028;-69
2023/07/13 02:15:57;;;;;;;7.80;4.60;;;;;;;27.63;38.58;99802.98;108251;1251;73145;-69
2023/07/13 02:18:23;;;;;;;6.10;4.40;;;;;;;27.69;38.48;99804.05;108246;1251;62009;-69
2023/07/13 02:20:51;;;;;;;7.00;4.20;;;;;;;27.66;38.68;99800.97;108236;1251;60222;-69
2023/07/13 02:23:22;;;;;;;5.70;4.50;;;;;;;27.75;38.58;99799.62;108128;1256;74393;-69
2023/07/13 02:25:49;;;;;;;6.90;4.60;;;;;;;27.63;38.67;99798.23;108137;1251;69120;-70
2023/07/13 02:28:16;;;;;;;9.60;4.50;;;;;;;27.60;38.83;99798.92;107968;1257;73338;-68
2023/07/13 02:30:43;;;;;;;9.40;4.80;;;;;;;27.63;38.74;99797.94;108883;1255;60983;-70
2023/07/13 02:33:10;;;;;;;7.80;5.10;;;;;;;27.67;38.68;99797.24;108658;1251;60307;-70
2023/07/13 02:35:37;;;;;;;8.50;4.70;;;;;;;27.56;38.98;99797.65;108349;1256;74399;-70
2023/07/13 02:38:04;;;;;;;11.10;4.70;;;;;;;27.32;39.35;99797.48;108249;1256;70487;-69
2023/07/13 02:40:35;;;;;;;7.50;5.00;;;;;;;27.31;39.38;99791.95;108369;1251;73330;-68
2023/07/13 02:43:02;;;;;;;8.80;5.00;;;;;;;27.41;39.29;99789.25;108026;1257;61808;-68
2023/07/13 02:45:32;;;;;;;6.60;5.00;;;;;;;27.52;38.96;99790.04;108218;1256;61016;-69
2023/07/13 02:47:58;;;;;;;11.00;5.30;;;;;;;27.50;39.09;99793.42;107986;1257;74078;-69
2023/07/13 02:50:25;;;;;;;8.30;5.00;;;;;;;27.62;38.76;99796.39;108200;1256;69079;-69
2023/07/13 02:52:52;;;;;;;7.60;5.40;;;;;;;27.67;38.78;99800.02;108173;1251;72695;-68
2023/07/13 02:55:19;;;;;;;9.20;4.80;;;;;;;27.69;38.84;99800.45;108192;1251;60335;-68
2023/07/13 02:57:45;;;;;;;13.20;5.30;;;;;;;27.58;38.93;99798.73;108226;1251;60351;-69
2023/07/13 03:00:12;;;;;;;6.40;4.80;;;;;;;27.43;39.41;99799.42;108094;1257;74396;-69
2023/07/13 03:02:40;;;;;;;10.00;4.70;;;;;;;27.68;38.96;99795.85;108275;1253;71102;-70
2023/07/13 03:05:07;;;;;;;6.40;5.10;;;;;;;27.83;38.85;99793.53;109255;1251;72337;-69
2023/07/13 03:07:34;;;;;;;7.90;4.40;;;;;;;28.30;38.25;99794.71;108575;1257;61764;-70
2023/07/13 03:10:01;;;;;;;5.80;4.70;;;;;;;28.38;38.13;99793.84;108020;1251;60594;-69
2023/07/13 03:12:36;;;;;;;9.90;5.60;;;;;;;27.98;38.66;99794.82;108319;1257;73930;-68
2023/07/13 03:15:05;;;;;;;7.20;5.10;;;;;;;27.95;38.66;99790.10;108025;1254;70718;-69
2023/07/13 03:17:33;;;;;;;6.60;4.80;;;;;;;27.92;38.69;99787.08;108014;1256;72571;-68
2023/07/13 03:20:00;;;;;;;7.40;4.70;;;;;;;27.94;38.85;99790.08;108196;1251;61836;-67
2023/07/13 03:22:28;;;;;;;6.60;4.70;;;;;;;28.13;38.44;99786.61;108242;1251;60328;-68
2023/07/13 03:24:55;;;;;;;7.30;4.90;;;;;;;28.36;38.06;99790.80;108126;1251;73894;-68
2023/07/13 03:27:22;;;;;;;7.40;5.10;;;;;;;28.32;38.06;99788.39;108205;1251;70800;-67
2023/07/13 03:29:49;;;;;;;9.00;5.60;;;;;;;28.28;38.27;99791.73;108000;1251;73378;-67
2023/07/13 03:32:16;;;;;;;7.90;5.10;;;;;;;28.51;37.76;99789.70;108189;1251;62090;-67
2023/07/13 03:34:43;;;;;;;8.10;5.20;;;;;;;28.69;37.65;99793.61;108015;1251;60380;-70
2023/07/13 03:37:10;;;;;;;12.60;5.30;;;;;;;28.80;37.38;99792.52;108100;1251;74490;-70
2023/07/13 03:39:36;;;;;;;7.20;5.00;;;;;;;28.53;37.75;99796.89;108040;1257;70223;-69
2023/07/13 03:42:03;;;;;;;11.60;5.40;;;;;;;28.60;37.62;99794.77;108044;1251;72499;-68
2023/07/13 03:44:31;;;;;;;7.50;5.00;;;;;;;28.54;37.98;99790.48;108675;1251;61629;-69
2023/07/13 03:46:58;;;;;;;8.00;5.20;;;;;;;28.51;38.04;99789.55;108246;1251;60382;-70
2023/07/13 03:49:27;;;;;;;6.00;4.70;;;;;;;28.99;37.27;99787.98;108054;1257;73677;-68
2023/07/13 03:51:54;;;;;;;7.00;4.70;;;;;;;29.02;37.47;99786.33;108157;1251;70336;-67
2023/07/13 03:54:21;;;;;;;8.30;5.30;;;;;;;29.05;37.15;99783.54;108204;1251;71481;-70
2023/07/13 03:56:47;;;;;;;9.90;5.60;;;;;;;29.26;36.82;99782.78;108220;1251;60582;-70
2023/07/13 03:59:15;;;;;;;7.90;4.80;;;;;;;29.63;36.65;99782.83;108359;1251;60926;-70
2023/07/13 04:01:43;;;;;;;10.10;4.70;;;;;;;29.86;36.00;99782.73;108003;1251;73773;-70
2023/07/13 04:04:11;;;;;;;11.10;5.10;;;;;;;29.73;36.10;99783.73;108262;1251;70249;-68
2023/07/13 04:06:38;;;;;;;9.40;4.70;;;;;;;29.88;35.95;99787.17;108258;1251;72468;-69
2023/07/13 04:09:09;;;;;;;5.70;4.30;;;;;;;29.91;36.02;99791.17;108294;1251;60774;-69
2023/07/13 04:11:37;;;;;;;6.50;4.50;;;;;;;29.86;36.10;99794.28;108178;1255;60431;-70
2023/07/13 04:14:03;;;;;;;7.60;4.70;;;;;;;30.28;35.47;99795.96;108175;1251;73606;-68
2023/07/13 04:16:31;;;;;;;8.20;5.00;;;;;;;30.43;35.13;99793.15;107981;1251;70080;-68
2023/07/13 04:19:00;;;;;;;8.20;4.90;;;;;;;30.71;34.84;99801.35;108210;1251;71110;-69
2023/07/13 04:21:29;;;;;;;9.50;4.90;;;;;;;30.97;34.30;99793.89;108170;1251;61790;-69
2023/07/13 04:23:56;;;;;;;6.40;4.40;;;;;;;31.21;33.86;99796.27;109144;1251;60175;-69
2023/07/13 04:26:23;;;;;;;11.70;4.50;;;;;;;31.30;33.56;99791.69;109348;1251;73920;-69
2023/07/13 04:28:50;;;;;;;7.40;4.30;;;;;;;31.41;33.31;99789.84;108084;1251;69498;-69
2023/07/13 04:31:17;;;;;;;6.70;4.50;;;;;;;31.51;32.86;99786.77;109260;1251;72892;-69
2023/07/13 04:33:44;;;;;;;9.30;3.90;;;;;;;31.83;32.55;99780.13;108324;1251;60318;-70
2023/07/13 04:36:15;;;;;;;10.60;4.20;;;;;;;31.88;32.13;99782.01;108220;1251;60335;-69
2023/07/13 04:38:42;;;;;;;5.60;3.90;;;;;;;32.29;31.79;99781.48;108341;1251;72341;-69
2023/07/13 04:41:08;;;;;;;7.10;4.10;;;;;;;32.56;31.35;99779.85;108192;1251;70480;-68
2023/07/13 04:43:36;;;;;;;5.30;4.40;;;;;;;32.51;31.18;99774.42;108103;1257;72530;-68
2023/07/13 04:46:08;;;;;;;5.10;4.30;;;;;;;32.60;31.22;99770.12;108217;1251;60235;-72
2023/07/13 04:48:34;;;;;;;9.40;3.70;;;;;;;32.79;30.68;99770.23;108312;1251;59985;-70
2023/07/13 04:51:01;;;;;;;10.70;4.60;;;;;;;32.96;30.72;99778.88;108116;1251;74695;-68
2023/07/13 04:53:28;;;;;;;9.90;4.00;;;;;;;33.04;30.68;99785.55;108231;1251;69248;-69
2023/07/13 04:55:55;;;;;;;9.80;4.80;;;;;;;33.20;30.53;99784.95;108256;1251;72602;-70
2023/07/13 04:58:22;;;;;;;7.70;4.10;;;;;;;33.31;30.12;99789.27;108090;1256;60078;-71
2023/07/13 05:03:35;;;;;;;5.80;4.00;;;;;;;31.40;33.12;99802.73;104765;1292;600790;-70
2023/07/13 05:06:04;;;;;;;12.60;4.20;;;;;;;33.12;30.54;99807.10;107144;1269;59230;-70
2023/07/13 05:08:31;;;;;;;6.80;3.70;;;;;;;33.85;29.82;99803.97;107132;1269;59048;-70
2023/07/13 05:11:00;;;;;;;10.00;4.40;;;;;;;33.90;29.21;99804.25;107183;1267;63770;-69
2023/07/13 05:13:28;;;;;;;8.20;4.40;;;;;;;33.96;29.03;99803.69;107201;1267;61567;-70
2023/07/13 05:16:01;;;;;;;7.70;4.00;;;;;;;34.09;29.19;99804.80;107263;1267;66269;-70
2023/07/13 05:18:29;;;;;;;9.30;4.20;;;;;;;34.52;28.57;99804.75;107201;1263;59275;-70
2023/07/13 05:20:58;;;;;;;10.90;4.40;;;;;;;34.75;28.29;99802.45;107394;1263;59122;-69
2023/07/13 05:23:25;;;;;;;7.70;4.00;;;;;;;34.49;28.43;99806.74;107357;1264;62075;-72
2023/07/13 05:25:53;;;;;;;9.10;3.30;;;;;;;34.43;28.29;99803.13;107365;1264;61550;-70
2023/07/13 05:28:21;;;;;;;5.20;3.10;;;;;;;34.60;28.33;99796.58;107302;1263;62614;-71
2023/07/13 05:30:49;;;;;;;5.40;3.70;;;;;;;34.90;28.20;99793.66;107259;1264;59484;-69
2023/07/13 05:33:16;;;;;;;9.90;3.90;;;;;;;35.41;27.63;99797.17;107849;1254;59545;-70
2023/07/13 05:35:44;;;;;;;4.70;3.40;;;;;;;35.58;27.10;99796.02;107802;1254;64036;-70
2023/07/13 05:38:11;;;;;;;7.60;3.80;;;;;;;35.71;26.70;99797.48;107826;1254;61462;-68
2023/07/13 05:40:39;;;;;;;7.60;3.50;;;;;;;35.85;26.57;99790.86;107896;1254;63692;-70
2023/07/13 05:43:06;;;;;;;8.00;3.50;;;;;;;35.89;26.45;99788.05;107811;1257;59643;-71
2023/07/13 05:45:33;;;;;;;9.70;3.80;;;;;;;35.98;26.39;99785.89;107820;1254;59528;-70
2023/07/13 05:48:01;;;;;;;5.20;3.20;;;;;;;36.07;26.14;99786.19;107788;1254;64125;-70
2023/07/13 05:50:28;;;;;;;8.50;3.90;;;;;;;35.88;26.02;99784.72;107803;1259;60162;-69
2023/07/13 05:52:56;;;;;;;9.90;3.30;;;;;;;35.82;26.36;99779.62;107779;1256;63907;-70
2023/07/13 05:55:23;;;;;;;11.40;3.20;;;;;;;35.57;26.32;99785.55;107778;1257;59704;-70
2023/07/13 05:57:51;;;;;;;4.50;3.00;;;;;;;35.38;26.72;99792.37;107827;1257;59532;-71
2023/07/13 06:00:19;;;;;;;5.10;3.30;;;;;;;35.31;26.85;99794.30;107815;1259;64131;-70
2023/07/13 06:02:46;;;;;;;7.50;3.20;;;;;;;35.28;26.90;99796.17;107780;1259;61854;-71
2023/07/13 06:05:14;;;;;;;8.30;3.30;;;;;;;35.07;27.21;99800.62;107816;1256;63728;-69
2023/07/13 06:07:41;;;;;;;5.20;2.90;;;;;;;34.90;27.50;99802.91;107863;1257;59489;-70
2023/07/13 06:10:09;;;;;;;8.40;3.40;;;;;;;34.73;27.51;99799.66;107839;1256;59134;-71
2023/07/13 06:12:37;;;;;;;16.80;4.00;;;;;;;34.65;27.44;99795.50;107838;1257;63025;-69
2023/07/13 06:15:05;;;;;;;5.90;3.30;;;;;;;34.84;27.42;99790.30;108197;1257;61443;-71
2023/07/13 06:17:32;;;;;;;5.70;3.90;;;;;;;35.29;27.32;99793.67;108675;1257;62534;-71
2023/07/13 06:20:00;;;;;;;6.30;3.80;;;;;;;35.75;26.92;99790.85;108119;1257;59730;-71
2023/07/13 06:22:28;;;;;;;6.40;3.10;;;;;;;35.90;26.62;99783.72;108226;1257;59546;-71
2023/07/13 06:24:56;;;;;;;8.10;3.50;;;;;;;36.24;26.35;99777.17;107602;1255;63697;-72
2023/07/13 06:27:24;;;;;;;5.20;3.00;;;;;;;36.58;25.96;99779.55;107911;1257;61451;-70
2023/07/13 06:29:51;;;;;;;6.60;3.20;;;;;;;36.66;25.72;99781.06;108450;1257;63595;-71
2023/07/13 06:32:18;;;;;;;9.00;3.50;;;;;;;36.83;25.31;99785.43;108835;1257;57388;-71
2023/07/13 06:34:46;;;;;;;6.60;3.20;;;;;;;36.75;25.60;99796.77;107846;1257;59486;-70
2023/07/13 06:37:13;;;;;;;6.10;3.40;;;;;;;36.83;25.48;99794.27;107781;1258;62863;-71
2023/07/13 06:39:41;;;;;;;7.00;3.30;;;;;;;36.69;25.45;99787.95;107794;1257;61664;-71
2023/07/13 06:42:08;;;;;;;5.90;3.80;;;;;;;36.59;26.03;99785.82;107886;1260;63785;-70
2023/07/13 06:44:37;;;;;;;8.80;3.80;;;;;;;36.42;26.02;99789.91;107916;1257;59471;-72
2023/07/13 06:47:05;;;;;;;8.70;3.90;;;;;;;36.19;26.48;99786.46;107905;1256;59532;-72
2023/07/13 06:49:33;;;;;;;7.90;3.20;;;;;;;36.05;26.67;99783.50;107751;1258;64211;-73
2023/07/13 06:52:00;;;;;;;12.00;3.50;;;;;;;35.82;27.02;99789.52;107754;1257;61403;-72
2023/07/13 06:54:28;;;;;;;16.50;4.00;;;;;;;35.82;27.26;99792.39;107618;1256;62434;-70
2023/07/13 06:56:55;;;;;;;11.20;3.40;;;;;;;35.81;26.98;99796.74;107670;1262;59548;-70
2023/07/13 06:59:23;;;;;;;5.70;3.30;;;;;;;35.58;27.17;99794.02;107704;1257;59653;-71
2023/07/13 07:01:50;;;;;;;13.00;3.70;;;;;;;36.03;26.86;99786.40;108241;1257;64136;-71
2023/07/13 07:04:17;;;;;;;7.40;3.20;;;;;;;36.36;26.20;99787.30;107636;1258;60758;-71
2023/07/13 07:06:45;;;;;;;18.60;4.50;;;;;;;36.25;25.93;99789.02;107652;1257;62505;-70
2023/07/13 07:09:16;;;;;;;9.90;3.80;;;;;;;36.47;25.44;99789.83;107926;1254;59193;-71
2023/07/13 07:11:43;;;;;;;9.40;4.00;;;;;;;36.40;25.92;99789.98;107905;1259;59525;-70
2023/07/13 07:14:29;;;;;;;11.10;3.90;;;;;;;36.35;25.89;99793.48;107939;1253;62887;-69
2023/07/13 07:16:58;;;;;;;12.90;4.00;;;;;;;36.17;25.87;99792.11;107899;1259;61368;-70
2023/07/13 07:19:29;;;;;;;6.80;3.50;;;;;;;36.29;26.09;99794.92;107895;1254;63797;-71
2023/07/13 07:21:56;;;;;;;11.90;4.30;;;;;;;36.31;26.10;99793.80;107866;1254;59627;-71
2023/07/13 07:24:23;;;;;;;16.50;3.80;;;;;;;36.25;25.61;99793.89;108023;1256;59816;-70
2023/07/13 07:26:51;;;;;;;7.50;3.40;;;;;;;36.76;25.43;99794.15;108055;1254;62926;-72
2023/07/13 07:29:22;;;;;;;11.30;3.70;;;;;;;37.13;25.04;99794.67;108101;1254;60308;-70
2023/07/13 07:31:52;;;;;;;9.40;3.80;;;;;;;37.61;24.45;99793.81;107969;1254;63763;-69
2023/07/13 07:34:23;;;;;;;10.00;3.70;;;;;;;38.28;24.20;99789.72;108060;1254;59537;-71
2023/07/13 07:36:50;;;;;;;9.20;3.60;;;;;;;38.53;23.55;99791.10;108204;1254;59416;-72
2023/07/13 07:39:20;;;;;;;14.00;3.70;;;;;;;38.62;23.69;99788.27;107935;1258;64240;-72
2023/07/13 07:41:48;;;;;;;12.70;3.70;;;;;;;38.44;23.69;99787.40;107958;1253;60249;-71
2023/07/13 07:44:18;;;;;;;5.90;3.40;;;;;;;37.76;24.31;99789.29;107925;1253;63830;-71
2023/07/13 07:46:46;;;;;;;12.80;3.40;;;;;;;37.47;24.80;99790.37;107932;1258;59439;-72
2023/07/13 07:49:13;;;;;;;16.60;4.20;;;;;;;37.49;24.81;99787.34;108465;1260;59073;-70
2023/07/13 07:51:41;;;;;;;19.20;3.80;;;;;;;37.66;24.82;99790.86;109139;1254;64135;-69
2023/07/13 07:54:08;;;;;;;11.10;3.70;;;;;;;38.03;24.50;99792.36;107976;1254;61452;-72
2023/07/13 07:56:41;;;;;;;13.30;3.70;;;;;;;38.75;23.99;99797.42;107963;1254;64326;-70
2023/07/13 07:59:11;;;;;;;13.70;3.20;;;;;;;38.98;23.36;99803.21;107974;1255;59624;-70
2023/07/13 08:01:43;;;;;;;13.40;4.20;;;;;;;38.87;23.25;99805.67;107940;1254;59128;-69
2023/07/13 08:04:30;;;;;;;12.20;3.60;;;;;;;38.39;23.70;99803.58;107949;1254;64191;-71
2023/07/13 08:07:02;;;;;;;10.80;3.40;;;;;;;38.29;24.32;99800.63;107949;1255;60264;-70
2023/07/13 08:09:30;;;;;;;11.30;3.80;;;;;;;38.16;24.24;99799.52;107910;1258;62449;-71
2023/07/13 08:11:57;;;;;;;9.30;3.30;;;;;;;38.06;24.45;99800.23;108044;1257;60806;-70
2023/07/13 08:14:27;;;;;;;12.40;3.80;;;;;;;38.26;24.53;99797.49;107935;1255;59545;-71
2023/07/13 08:17:09;;;;;;;9.70;3.30;;;;;;;38.43;23.97;99797.22;107980;1255;62886;-69
2023/07/13 08:19:36;;;;;;;9.60;3.30;;;;;;;38.50;23.81;99794.64;107968;1254;61758;-71
2023/07/13 08:22:06;;;;;;;8.90;3.60;;;;;;;38.39;24.06;99793.77;107965;1257;63962;-70
2023/07/13 08:24:33;;;;;;;10.40;3.30;;;;;;;38.52;23.67;99790.83;107924;1254;59496;-71
2023/07/13 08:27:01;;;;;;;7.00;3.20;;;;;;;38.47;24.04;99794.76;107979;1254;59439;-71
2023/07/13 08:29:28;;;;;;;7.40;3.20;;;;;;;38.52;23.96;99792.91;107977;1255;64292;-70
2023/07/13 08:31:57;;;;;;;6.50;3.10;;;;;;;38.41;24.12;99788.85;107807;1254;61338;-72
2023/07/13 08:34:24;;;;;;;7.50;3.50;;;;;;;38.24;24.66;99788.55;107945;1254;63710;-70
2023/07/13 08:36:52;;;;;;;6.40;3.20;;;;;;;38.36;24.63;99787.98;107913;1254;59539;-70
2023/07/13 08:39:19;;;;;;;13.90;3.70;;;;;;;38.52;24.43;99790.16;107894;1254;59671;-70
2023/07/13 08:41:48;;;;;;;9.40;3.50;;;;;;;38.37;24.48;99790.88;107912;1254;64219;-70
2023/07/13 08:44:23;;;;;;;6.60;3.40;;;;;;;38.26;24.57;99786.48;107913;1254;60099;-71
2023/07/13 08:46:50;;;;;;;5.80;3.50;;;;;;;37.95;25.11;99787.32;107986;1254;62910;-71
2023/07/13 08:49:19;;;;;;;8.50;3.30;;;;;;;37.87;24.94;99788.88;107897;1254;59512;-69
2023/07/13 08:51:57;;;;;;;8.40;3.60;;;;;;;37.56;24.98;99789.80;108048;1254;59705;-71
2023/07/13 08:54:38;;;;;;;7.20;3.50;;;;;;;37.44;25.01;99787.46;107973;1255;64682;-71
2023/07/13 08:57:17;;;;;;;10.20;3.60;;;;;;;37.26;24.74;99785.66;108002;1254;61554;-70
2023/07/13 08:59:44;;;;;;;8.90;3.70;;;;;;;37.42;24.95;99782.20;108004;1254;63122;-70
2023/07/13 09:02:39;;;;;;;8.10;3.50;;;;;;;37.62;25.06;99780.66;107988;1259;59538;-70
2023/07/13 09:05:38;;;;;;;13.00;4.10;;;;;;;37.79;24.90;99784.02;108932;1254;59793;-72
2023/07/13 09:08:23;;;;;;;9.80;3.60;;;;;;;38.09;24.87;99781.82;108634;1254;62807;-70
2023/07/13 09:11:13;;;;;;;9.10;3.30;;;;;;;37.79;24.79;99782.05;107861;1254;69158;-71
2023/07/13 09:14:06;;;;;;;7.50;3.60;;;;;;;37.65;24.88;99781.98;108023;1254;64235;-70
2023/07/13 09:16:33;;;;;;;6.90;3.20;;;;;;;37.44;24.86;99783.50;108007;1254;58841;-70
2023/07/13 09:19:04;;;;;;;12.10;3.50;;;;;;;37.55;24.92;99779.36;107999;1254;60332;-70
2023/07/13 09:21:33;;;;;;;7.20;3.70;;;;;;;37.84;24.60;99779.63;108010;1258;63626;-71
2023/07/13 09:24:21;;;;;;;7.20;3.60;;;;;;;38.26;24.26;99776.27;107972;1254;61462;-71
2023/07/13 09:26:48;;;;;;;6.50;3.20;;;;;;;38.18;24.51;99774.65;107955;1254;62443;-71
2023/07/13 09:29:36;;;;;;;9.60;3.50;;;;;;;38.21;24.58;99772.89;107718;1254;60774;-71
2023/07/13 09:32:06;;;;;;;8.90;3.80;;;;;;;38.08;24.86;99772.31;107990;1254;60479;-70
2023/07/13 09:34:33;;;;;;;6.70;3.40;;;;;;;38.36;24.90;99770.19;107923;1254;64948;-71
2023/07/13 09:37:01;;;;;;;8.10;3.30;;;;;;;38.80;24.48;99766.41;108067;1254;61424;-70
2023/07/13 09:39:32;;;;;;;7.70;3.50;;;;;;;38.88;24.43;99763.36;108179;1254;63844;-71
2023/07/13 09:42:15;;;;;;;6.90;3.50;;;;;;;39.26;23.98;99767.44;108137;1254;59441;-69
2023/07/13 09:44:51;;;;;;;10.30;4.20;;;;;;;39.49;23.65;99768.41;109172;1254;58161;-70
2023/07/13 09:47:24;;;;;;;14.00;4.10;;;;;;;39.69;23.75;99757.81;108002;1254;66979;-72
2023/07/13 09:49:59;;;;;;;7.30;3.40;;;;;;;39.98;22.94;99755.61;107911;1257;61348;-71
2023/07/13 09:52:52;;;;;;;10.10;3.30;;;;;;;40.46;21.76;99754.71;108370;1254;64336;-70
2023/07/13 09:55:29;;;;;;;8.60;3.60;;;;;;;40.96;21.30;99756.26;107958;1254;60555;-70
2023/07/13 09:57:56;;;;;;;9.70;3.30;;;;;;;40.85;20.87;99756.46;107955;1252;60534;-71
2023/07/13 10:00:26;;;;;;;6.00;3.40;;;;;;;40.24;21.64;99755.05;108003;1257;63686;-71
2023/07/13 10:03:05;;;;;;;6.10;3.00;;;;;;;40.23;21.34;99753.86;107932;1255;60424;-71
2023/07/13 10:05:40;;;;;;;10.60;3.40;;;;;;;40.09;21.57;99752.61;108011;1254;73989;-72
2023/07/13 10:08:21;;;;;;;6.50;3.00;;;;;;;40.06;21.65;99756.59;107942;1260;60233;-72
2023/07/13 10:11:08;;;;;;;5.40;3.40;;;;;;;39.82;22.10;99761.50;108218;1253;60363;-71
2023/07/13 10:13:38;;;;;;;10.20;3.50;;;;;;;39.68;22.44;99764.81;108000;1253;64944;-71
2023/07/13 10:16:06;;;;;;;4.50;3.30;;;;;;;39.56;22.83;99764.49;108089;1259;60230;-69
2023/07/13 10:18:37;;;;;;;5.50;3.20;;;;;;;39.69;23.67;99765.87;107928;1254;63781;-71
2023/07/13 10:21:19;;;;;;;5.10;3.30;;;;;;;39.65;23.71;99758.71;108018;1254;60437;-70
2023/07/13 10:24:23;;;;;;;5.50;3.30;;;;;;;39.48;23.60;99749.85;107969;1254;60208;-69
2023/07/13 10:27:04;;;;;;;9.20;3.80;;;;;;;39.62;23.62;99742.86;108002;1257;63622;-71
2023/07/13 10:29:35;;;;;;;6.00;3.30;;;;;;;39.54;23.56;99740.66;108205;1254;61407;-72
2023/07/13 10:32:08;;;;;;;5.60;4.00;;;;;;;39.63;23.39;99739.67;108164;1254;62534;-72
2023/07/13 10:34:36;;;;;;;6.10;3.70;;;;;;;39.82;23.50;99732.58;108249;1254;60446;-71
2023/07/13 10:37:03;;;;;;;7.70;3.70;;;;;;;39.79;23.65;99728.89;107963;1254;60578;-69
2023/07/13 10:39:31;;;;;;;5.50;3.80;;;;;;;40.07;23.39;99719.20;107884;1254;64946;-71
2023/07/13 10:42:00;;;;;;;4.30;3.20;;;;;;;40.25;23.08;99717.19;107982;1254;64200;-70
2023/07/13 10:44:29;;;;;;;8.30;3.20;;;;;;;40.43;22.86;99713.14;107987;1254;62570;-69
2023/07/13 10:46:58;;;;;;;7.90;3.50;;;;;;;40.37;23.05;99703.11;107981;1254;60453;-70
2023/07/13 10:49:30;;;;;;;11.10;4.00;;;;;;;40.38;22.85;99696.77;107907;1254;59522;-69
2023/07/13 10:51:58;;;;;;;11.10;4.00;;;;;;;40.39;22.42;99688.86;107954;1259;65995;-71
2023/07/13 10:54:31;;;;;;;8.30;3.20;;;;;;;40.38;22.41;99687.00;107974;1254;61545;-70
2023/07/13 10:57:18;;;;;;;9.80;3.90;;;;;;;39.96;22.49;99678.90;107985;1258;62529;-71
2023/07/13 10:59:48;;;;;;;5.50;3.50;;;;;;;39.72;22.99;99677.61;107993;1254;60456;-71
2023/07/13 11:02:23;;;;;;;7.10;3.50;;;;;;;40.16;23.04;99674.18;107990;1254;60322;-71
2023/07/13 11:04:51;;;;;;;11.10;3.70;;;;;;;40.44;22.59;99671.05;109204;1253;64933;-72
2023/07/13 11:07:25;;;;;;;24.70;4.60;;;;;;;40.65;22.31;99668.77;108616;1254;61406;-71
2023/07/13 11:09:54;;;;;;;12.80;4.30;;;;;;;41.05;22.07;99667.48;107944;1254;62528;-71
2023/07/13 11:12:26;;;;;;;9.60;4.00;;;;;;;40.83;21.94;99670.79;107986;1254;60303;-70
2023/07/13 11:14:53;;;;;;;10.10;4.00;;;;;;;40.92;21.82;99661.28;107973;1254;60300;-71
2023/07/13 11:17:31;;;;;;;5.90;3.40;;;;;;;41.34;21.59;99655.02;107996;1258;65543;-72
2023/07/13 11:20:11;;;;;;;10.20;3.90;;;;;;;41.35;21.59;99649.88;107998;1254;61543;-71
2023/07/13 11:22:47;;;;;;;11.60;4.10;;;;;;;41.68;21.36;99645.38;107923;1255;62976;-70
2023/07/13 11:25:28;;;;;;;5.80;3.80;;;;;;;42.24;21.22;99643.71;107933;1254;60280;-71
2023/07/13 11:28:14;;;;;;;6.90;4.00;;;;;;;42.55;20.78;99651.95;107974;1254;60312;-72
2023/07/13 11:30:43;;;;;;;6.50;4.00;;;;;;;41.77;21.08;99641.12;107941;1254;63873;-72
2023/07/13 11:33:37;;;;;;;8.50;4.50;;;;;;;41.79;21.21;99642.14;107851;1254;60319;-72
2023/07/13 11:36:15;;;;;;;9.70;3.80;;;;;;;41.89;21.06;99641.50;107904;1254;63738;-70
2023/07/13 11:39:07;;;;;;;10.90;3.80;;;;;;;41.28;21.72;99642.11;107934;1254;60453;-72